Time;durP1;ratioP1;P1;durP2;ratioP2;P2;SDS_P1;SDS_P2;PMS_P1;PMS_P2;Temp;Humidity;BMP_temperature;BMP_pressure;BME280_temperature;BME280_humidity;BME280_pressure;Samples;Min_cycle;Max_cycle;Signal;HPM_P1;HPM_P2
2023/01/04 00:01:45;;;;;;;79.28;65.57;;;;;;;0.80;100.00;102156.19;5063233;28;20057;-79
2023/01/04 00:04:11;;;;;;;78.05;64.90;;;;;;;0.86;100.00;102162.78;5069263;28;20053;-80
2023/01/04 00:06:39;;;;;;;77.18;68.45;;;;;;;0.44;100.00;102162.19;5064475;28;20053;-78
2023/01/04 00:09:06;;;;;;;73.22;65.10;;;;;;;0.50;100.00;102160.94;5064494;28;20044;-81
2023/01/04 00:11:33;;;;;;;75.22;63.60;;;;;;;0.61;100.00;102169.72;5061959;28;20076;-83
2023/01/04 00:14:00;;;;;;;92.28;70.65;;;;;;;0.55;100.00;102172.75;5060226;28;20114;-81
2023/01/04 00:16:28;;;;;;;84.97;69.95;;;;;;;0.56;100.00;102169.19;5065948;28;20109;-78
2023/01/04 00:18:55;;;;;;;103.57;78.30;;;;;;;0.58;100.00;102175.16;5064754;28;20052;-78
2023/01/04 00:21:24;;;;;;;102.53;79.35;;;;;;;0.58;100.00;102169.09;5065865;28;20500;-81
2023/01/04 00:23:54;;;;;;;132.80;93.20;;;;;;;0.54;100.00;102170.25;5065473;28;20041;-81
2023/01/04 00:26:23;;;;;;;129.35;91.88;;;;;;;0.53;100.00;102182.47;5054421;28;20123;-80
2023/01/04 00:28:54;;;;;;;127.93;94.45;;;;;;;0.61;100.00;102174.13;5054065;28;20048;-78
2023/01/04 00:31:21;;;;;;;120.70;90.50;;;;;;;0.22;100.00;102184.56;5054020;28;20139;-80
2023/01/04 00:33:48;;;;;;;117.95;86.57;;;;;;;0.40;100.00;102179.88;5054085;28;20094;-78
2023/01/04 00:36:15;;;;;;;97.57;78.82;;;;;;;0.43;100.00;102182.28;5064340;28;20048;-77
2023/01/04 00:38:42;;;;;;;84.90;66.60;;;;;;;-0.11;100.00;102185.00;5063064;28;20055;-79
2023/01/04 00:41:12;;;;;;;89.32;71.75;;;;;;;0.32;100.00;102179.53;5063870;28;20048;-78
2023/01/04 00:43:39;;;;;;;98.88;74.82;;;;;;;0.40;100.00;102177.25;5056733;28;20053;-81
2023/01/04 00:46:10;;;;;;;97.22;73.10;;;;;;;0.48;100.00;102179.34;5064030;28;20044;-79
2023/01/04 00:48:38;;;;;;;79.88;67.57;;;;;;;0.53;100.00;102181.66;5064623;28;20083;-81
2023/01/04 00:51:05;;;;;;;75.38;66.45;;;;;;;0.25;100.00;102188.75;5063704;28;20048;-82
2023/01/04 00:53:31;;;;;;;75.20;63.92;;;;;;;0.19;100.00;102191.78;5063900;28;20052;-81
2023/01/04 00:56:01;;;;;;;72.13;64.20;;;;;;;0.37;100.00;102184.47;5064458;28;20079;-81
2023/01/04 00:58:29;;;;;;;73.22;65.60;;;;;;;0.39;100.00;102193.88;5056227;28;20052;-82
2023/01/04 01:01:05;;;;;;;79.97;70.60;;;;;;;0.17;100.00;102183.19;5067491;22;20053;-92
2023/01/04 01:03:34;;;;;;;74.93;66.80;;;;;;;0.38;100.00;102175.69;5034184;28;20403;-92
2023/01/04 01:06:08;;;;;;;71.22;62.45;;;;;;;0.11;100.00;102171.38;5038792;28;20136;-92
2023/01/04 01:08:45;;;;;;;77.13;68.75;;;;;;;0.05;100.00;102173.56;5019590;28;20522;-92
2023/01/04 01:11:13;;;;;;;73.43;62.28;;;;;;;0.18;100.00;102169.16;5020338;28;20130;-91
2023/01/04 01:13:52;;;;;;;74.15;62.13;;;;;;;0.46;100.00;102178.63;5020450;28;20057;-92
2023/01/04 01:16:22;;;;;;;71.18;60.75;;;;;;;0.43;100.00;102166.59;5030872;28;20176;-92
2023/01/04 01:18:53;;;;;;;75.75;65.47;;;;;;;0.19;100.00;102163.03;5035070;28;20041;-92
2023/01/04 01:21:26;;;;;;;76.00;68.25;;;;;;;0.32;100.00;102147.34;5030418;28;20459;-92
2023/01/04 01:23:55;;;;;;;82.85;66.90;;;;;;;0.14;100.00;102144.19;5023662;28;20054;-92
2023/01/04 01:26:26;;;;;;;78.47;64.28;;;;;;;0.20;100.00;102146.41;5029537;28;20049;-92
2023/01/04 01:29:01;;;;;;;70.43;60.33;;;;;;;0.50;100.00;102166.16;5031068;28;20041;-92
2023/01/04 01:31:30;;;;;;;79.63;69.07;;;;;;;0.39;100.00;102143.38;5028783;28;20108;-92
2023/01/04 01:34:03;;;;;;;84.85;69.60;;;;;;;0.43;100.00;102163.97;5041407;28;20045;-92
2023/01/04 01:36:32;;;;;;;73.68;61.00;;;;;;;0.49;100.00;102170.56;5027085;28;20470;-92
2023/01/04 01:41:40;;;;;;;66.93;59.15;;;;;;;0.89;100.00;102186.13;5091239;27;20915;-79
2023/01/04 01:44:45;;;;;;;71.20;62.03;;;;;;;1.27;100.00;102186.06;5084683;28;20133;-80
2023/01/04 01:47:14;;;;;;;76.22;67.65;;;;;;;0.78;100.00;102180.78;5082182;28;20044;-79
2023/01/04 01:49:43;;;;;;;71.50;63.15;;;;;;;0.63;100.00;102187.91;5081952;28;20121;-79
2023/01/04 01:52:14;;;;;;;71.30;59.20;;;;;;;0.77;100.00;102182.56;5079946;28;20056;-82
2023/01/04 01:54:44;;;;;;;69.20;60.53;;;;;;;0.62;100.00;102191.47;5080582;28;20113;-82
2023/01/04 01:57:16;;;;;;;76.70;62.03;;;;;;;0.41;100.00;102194.59;5084683;28;20121;-82
2023/01/04 01:59:45;;;;;;;76.22;62.30;;;;;;;0.35;100.00;102199.41;5084319;28;20044;-82
2023/01/04 02:02:12;;;;;;;98.95;72.57;;;;;;;0.13;100.00;102189.56;5083529;28;20071;-81
2023/01/04 02:04:44;;;;;;;109.53;81.85;;;;;;;0.01;100.00;102191.22;5075803;28;20460;-81
2023/01/04 02:07:16;;;;;;;111.03;84.55;;;;;;;0.04;100.00;102193.63;5078002;28;20052;-78
2023/01/04 02:09:44;;;;;;;119.45;84.28;;;;;;;0.03;100.00;102181.50;5072629;28;20056;-78
2023/01/04 02:12:13;;;;;;;125.97;88.68;;;;;;;0.00;100.00;102186.94;5076535;28;20070;-78
2023/01/04 02:14:42;;;;;;;105.90;80.88;;;;;;;0.14;100.00;102189.44;5076012;28;20056;-83
2023/01/04 02:17:16;;;;;;;116.22;81.95;;;;;;;0.04;100.00;102185.78;5083104;28;20055;-78
2023/01/04 02:20:16;;;;;;;103.47;79.60;;;;;;;-0.05;100.00;102189.00;5077160;28;20040;-82
2023/01/04 02:23:07;;;;;;;92.07;74.88;;;;;;;-0.04;100.00;102185.44;5070541;28;20144;-81
2023/01/04 02:26:06;;;;;;;109.40;89.95;;;;;;;0.20;100.00;102183.81;5074461;28;20052;-81
2023/01/04 02:28:52;;;;;;;125.30;95.03;;;;;;;0.16;100.00;102181.53;5030103;28;20500;-79
2023/01/04 02:31:28;;;;;;;125.50;86.40;;;;;;;0.15;100.00;102180.69;5066744;28;20044;-81
2023/01/04 02:34:03;;;;;;;105.93;74.00;;;;;;;0.17;100.00;102191.84;5070389;28;20062;-81
2023/01/04 02:36:36;;;;;;;103.05;76.03;;;;;;;0.16;100.00;102177.13;5063797;28;20089;-81
2023/01/04 02:39:17;;;;;;;100.57;68.95;;;;;;;0.20;100.00;102173.34;5077304;28;20072;-82
2023/01/04 02:41:48;;;;;;;87.93;67.72;;;;;;;0.08;100.00;102174.19;5078834;28;20075;-80
2023/01/04 02:47:06;;;;;;;85.47;70.65;;;;;;;-0.07;100.00;102176.03;5080306;28;20047;-79
2023/01/04 02:52:17;;;;;;;68.55;59.15;;;;;;;0.36;100.00;102188.00;5070703;28;20291;-78
2023/01/04 02:54:47;;;;;;;75.22;61.08;;;;;;;0.10;100.00;102195.00;5063941;28;20049;-79
2023/01/04 02:57:25;;;;;;;98.30;65.18;;;;;;;0.04;100.00;102195.41;5062887;28;20064;-78
2023/01/04 03:00:15;;;;;;;83.18;65.70;;;;;;;0.04;100.00;102191.00;5061943;28;20487;-78
2023/01/04 03:08:39;;;;;;;118.63;89.78;;;;;;;-0.33;100.00;102189.97;5058647;28;20072;-79
2023/01/04 03:12:30;;;;;;;129.30;94.25;;;;;;;-0.24;100.00;102179.75;5060139;28;20106;-82
2023/01/04 03:13:59;;;;;;;144.48;96.57;;;;;;;-0.14;100.00;102180.00;5060545;28;20396;-83
2023/01/04 03:16:27;;;;;;;140.65;94.97;;;;;;;-0.12;100.00;102179.88;5057145;28;20119;-80
2023/01/04 03:19:03;;;;;;;137.88;98.28;;;;;;;-0.37;100.00;102171.03;5068250;28;20121;-81
2023/01/04 03:21:32;;;;;;;159.00;108.88;;;;;;;-0.40;100.00;102167.78;5035978;28;20088;-78
2023/01/04 03:35:39;;;;;;;79.90;65.32;;;;;;;0.19;100.00;102210.06;5063600;28;20063;-79
2023/01/04 03:49:39;;;;;;;98.20;76.35;;;;;;;-0.16;100.00;102194.09;5064485;28;20067;-81
2023/01/04 03:52:09;;;;;;;82.68;69.68;;;;;;;-0.22;100.00;102189.25;5065089;28;20109;-78
2023/01/04 03:54:39;;;;;;;73.47;65.40;;;;;;;-0.06;100.00;102189.91;5062150;28;20107;-78
2023/01/04 03:57:08;;;;;;;85.22;69.03;;;;;;;-0.29;100.00;102194.03;5054698;28;20131;-82
2023/01/04 03:59:39;;;;;;;68.18;60.67;;;;;;;-0.12;100.00;102190.31;5056369;28;20045;-82
2023/01/04 04:02:09;;;;;;;81.50;66.97;;;;;;;-0.25;100.00;102198.94;5064519;28;20190;-81
2023/01/04 04:10:06;;;;;;;74.63;62.92;;;;;;;-0.31;100.00;102203.75;5063064;28;20491;-79
2023/01/04 04:12:33;;;;;;;80.75;63.70;;;;;;;-0.46;100.00;102203.78;5051855;28;20160;-79
2023/01/04 04:14:59;;;;;;;101.60;79.15;;;;;;;-0.22;100.00;102208.38;5061986;28;20064;-80
2023/01/04 04:17:26;;;;;;;144.57;91.30;;;;;;;-0.28;100.00;102209.59;5069305;28;20060;-81
2023/01/04 04:19:53;;;;;;;138.73;91.80;;;;;;;0.04;100.00;102213.69;5059901;28;20056;-81
2023/01/04 04:22:21;;;;;;;178.45;113.32;;;;;;;0.31;100.00;102224.94;5065154;28;20056;-78
2023/01/04 04:24:49;;;;;;;143.18;97.57;;;;;;;0.20;100.00;102219.56;5066212;28;20110;-82
2023/01/04 04:27:16;;;;;;;147.20;96.95;;;;;;;0.25;100.00;102217.50;5048497;28;20106;-81
2023/01/04 04:29:42;;;;;;;130.93;91.15;;;;;;;0.25;100.00;102214.88;5056711;28;20045;-77
2023/01/04 04:32:09;;;;;;;132.55;91.40;;;;;;;0.33;100.00;102206.50;5064132;28;20469;-81
2023/01/04 04:34:36;;;;;;;137.77;95.68;;;;;;;0.31;100.00;102221.47;5064168;28;20117;-78
2023/01/04 04:37:03;;;;;;;119.78;87.20;;;;;;;0.55;100.00;102219.81;5064277;28;20064;-78
2023/01/04 04:39:31;;;;;;;79.65;68.40;;;;;;;0.83;100.00;102207.47;5063533;28;20134;-79
2023/01/04 04:41:56;;;;;;;72.38;62.17;;;;;;;0.89;100.00;102210.50;5054876;28;20041;-81
2023/01/04 04:44:23;;;;;;;67.28;59.35;;;;;;;1.09;100.00;102213.50;5055767;28;20048;-82
2023/01/04 04:46:50;;;;;;;73.22;60.53;;;;;;;1.25;100.00;102197.56;5062869;28;20110;-83
2023/01/04 04:49:18;;;;;;;88.25;73.70;;;;;;;0.89;100.00;102189.56;5063951;28;20125;-83
2023/01/04 04:51:45;;;;;;;94.47;72.18;;;;;;;1.05;100.00;102199.78;5060927;28;20052;-81
2023/01/04 04:54:18;;;;;;;98.97;73.95;;;;;;;1.26;100.00;102210.53;5065660;28;20056;-82
2023/01/04 04:56:46;;;;;;;;;;;;;;;0.93;100.00;102205.06;5057586;28;20049;-82
2023/01/04 04:59:12;;;;;;;85.93;65.05;;;;;;;0.78;100.00;102207.78;5059679;28;19924;-78
2023/01/04 05:01:39;;;;;;;77.28;62.40;;;;;;;1.18;100.00;102219.88;5059960;28;20049;-85
2023/01/04 05:04:06;;;;;;;79.78;63.53;;;;;;;0.78;100.00;102220.84;5063504;28;20055;-78
2023/01/04 05:06:33;;;;;;;81.00;64.00;;;;;;;0.91;100.00;102221.72;5060497;28;20049;-80
2023/01/04 05:08:59;;;;;;;75.25;62.25;;;;;;;1.08;100.00;102222.31;5050165;28;20045;-82
2023/01/04 05:14:08;;;;;;;106.47;78.13;;;;;;;1.29;100.00;102231.25;5053437;28;20079;-81
2023/01/04 05:16:35;;;;;;;110.80;81.10;;;;;;;1.36;100.00;102243.00;5051571;28;20492;-82
2023/01/04 05:19:02;;;;;;;130.60;91.65;;;;;;;1.42;100.00;102235.63;5066298;28;20064;-78
2023/01/04 05:21:29;;;;;;;110.80;79.80;;;;;;;1.65;100.00;102229.59;5016742;28;20063;-83
2023/01/04 05:23:56;;;;;;;95.45;70.97;;;;;;;1.66;100.00;102238.28;5034336;28;20061;-77
2023/01/04 05:26:22;;;;;;;84.25;63.67;;;;;;;1.75;100.00;102235.81;5021759;28;20053;-79
2023/01/04 05:28:49;;;;;;;69.22;60.53;;;;;;;1.81;100.00;102232.75;5017121;28;20470;-78
2023/01/04 05:31:16;;;;;;;72.40;59.38;;;;;;;2.02;100.00;102243.44;5021519;28;20406;-78
2023/01/04 05:33:43;;;;;;;68.85;58.92;;;;;;;2.03;100.00;102233.84;5022786;28;20114;-81
2023/01/04 05:36:10;;;;;;;84.00;69.97;;;;;;;2.00;100.00;102240.13;5017318;28;20053;-82
2023/01/04 05:38:36;;;;;;;83.20;63.92;;;;;;;2.20;100.00;102240.44;5017133;28;20049;-82
2023/01/04 05:42:23;;;;;;;96.70;69.80;;;;;;;1.77;100.00;102247.03;5023858;28;20057;-78
2023/01/04 05:43:51;;;;;;;132.93;78.15;;;;;;;1.97;100.00;102250.00;5025711;28;20077;-80
2023/01/04 05:46:19;;;;;;;96.80;67.90;;;;;;;2.00;100.00;102260.25;5030324;28;20042;-81
2023/01/04 05:48:46;;;;;;;96.68;66.90;;;;;;;2.12;100.00;102242.78;5024598;28;20488;-82
2023/01/04 05:51:13;;;;;;;87.13;64.50;;;;;;;2.35;100.00;102246.31;5023697;28;20460;-78
2023/01/04 05:53:39;;;;;;;86.20;67.90;;;;;;;2.17;100.00;102251.97;5029472;28;20111;-79
2023/01/04 05:56:07;;;;;;;81.78;60.83;;;;;;;2.26;100.00;102248.66;5028492;28;20118;-78
2023/01/04 05:58:34;;;;;;;79.90;60.30;;;;;;;2.37;100.00;102244.44;5030135;28;20041;-79
2023/01/04 06:01:00;;;;;;;68.82;57.97;;;;;;;2.44;100.00;102245.63;5025604;28;20513;-81
2023/01/04 06:03:29;;;;;;;72.30;59.13;;;;;;;2.32;100.00;102238.69;5022986;28;20057;-81
2023/01/04 06:05:55;;;;;;;72.65;60.00;;;;;;;2.37;100.00;102239.19;5022996;28;20050;-81
2023/01/04 06:08:22;;;;;;;71.72;59.28;;;;;;;2.49;100.00;102238.25;5027132;28;20061;-78
2023/01/04 06:10:53;;;;;;;69.63;58.88;;;;;;;2.47;100.00;102238.34;5025461;28;20057;-79
2023/01/04 06:13:20;;;;;;;87.72;70.90;;;;;;;2.50;100.00;102229.44;5027482;28;20148;-80
2023/01/04 06:15:47;;;;;;;108.70;81.38;;;;;;;2.43;100.00;102230.84;5032310;28;20502;-82
2023/01/04 06:18:13;;;;;;;90.97;73.13;;;;;;;2.27;100.00;102226.75;5025086;28;20050;-81
2023/01/04 06:20:42;;;;;;;78.45;67.38;;;;;;;2.02;100.00;102240.00;5023360;28;20038;-82
2023/01/04 06:23:09;;;;;;;70.40;60.10;;;;;;;1.90;100.00;102241.72;5021881;28;20054;-82
2023/01/04 06:25:37;;;;;;;78.90;67.38;;;;;;;2.28;100.00;102246.78;5009439;28;20455;-79
2023/01/04 06:28:03;;;;;;;72.95;62.03;;;;;;;2.41;100.00;102243.25;5054586;28;20044;-79
2023/01/04 06:30:30;;;;;;;85.13;61.88;;;;;;;2.54;100.00;102257.09;5044186;28;20114;-79
2023/01/04 06:32:57;;;;;;;66.72;58.92;;;;;;;2.57;100.00;102245.53;5050147;28;20041;-82
2023/01/04 06:35:24;;;;;;;73.03;64.60;;;;;;;2.62;100.00;102259.97;5048072;28;20057;-78
2023/01/04 06:37:52;;;;;;;73.03;65.05;;;;;;;2.73;100.00;102260.00;5045164;28;20115;-82
2023/01/04 06:40:19;;;;;;;71.93;60.50;;;;;;;2.87;100.00;102272.06;5061819;28;20055;-79
2023/01/04 06:42:45;;;;;;;69.28;60.25;;;;;;;2.72;100.00;102274.09;5057111;28;20053;-82
2023/01/04 06:45:12;;;;;;;66.97;59.72;;;;;;;2.97;100.00;102291.41;5061886;28;20113;-79
2023/01/04 06:47:40;;;;;;;65.30;58.22;;;;;;;3.06;100.00;102281.16;5051712;28;20469;-82
2023/01/04 06:50:08;;;;;;;63.35;56.60;;;;;;;3.07;100.00;102290.69;5052902;28;20057;-82
2023/01/04 06:52:35;;;;;;;62.22;55.53;;;;;;;3.07;100.00;102302.03;5048522;28;20056;-82
2023/01/04 06:55:03;;;;;;;64.45;57.75;;;;;;;3.15;100.00;102298.84;5054135;28;20068;-79
2023/01/04 06:57:30;;;;;;;64.13;57.47;;;;;;;3.34;100.00;102293.81;5038060;28;20057;-78
2023/01/04 06:59:57;;;;;;;64.72;57.95;;;;;;;3.35;100.00;102303.34;5051968;28;20049;-82
2023/01/04 07:02:24;;;;;;;83.05;71.90;;;;;;;3.50;100.00;102295.22;5059203;28;20107;-81
2023/01/04 07:04:50;;;;;;;99.88;78.45;;;;;;;3.46;100.00;102299.06;5068606;28;20053;-82
2023/01/04 07:07:17;;;;;;;88.47;70.70;;;;;;;3.53;100.00;102302.88;5055903;28;20437;-79
2023/01/04 07:09:44;;;;;;;94.35;75.20;;;;;;;3.46;100.00;102299.06;5051396;28;20546;-82
2023/01/04 07:12:12;;;;;;;103.72;80.03;;;;;;;3.34;100.00;102303.47;5069652;28;20056;-79
2023/01/04 07:14:39;;;;;;;105.00;76.80;;;;;;;3.45;100.00;102306.13;5064307;28;20052;-80
2023/01/04 07:17:05;;;;;;;118.78;83.60;;;;;;;3.27;100.00;102300.50;5065199;28;20044;-79
2023/01/04 07:19:32;;;;;;;107.15;82.07;;;;;;;3.24;100.00;102311.25;5061343;28;20055;-84
2023/01/04 07:22:00;;;;;;;106.57;79.93;;;;;;;3.50;100.00;102318.88;5064935;28;20055;-81
2023/01/04 07:24:28;;;;;;;94.47;74.68;;;;;;;3.50;100.00;102317.06;5062935;28;20114;-78
2023/01/04 07:26:55;;;;;;;88.78;71.53;;;;;;;3.76;100.00;102316.81;5059092;28;20486;-79
2023/01/04 07:29:23;;;;;;;80.70;65.28;;;;;;;3.79;100.00;102319.22;5053182;28;20045;-83
2023/01/04 07:31:51;;;;;;;94.95;76.72;;;;;;;3.83;100.00;102321.47;5061071;28;20118;-79
2023/01/04 07:34:20;;;;;;;101.40;79.72;;;;;;;3.76;100.00;102322.09;5050530;28;20052;-82
2023/01/04 07:36:47;;;;;;;92.28;74.50;;;;;;;3.76;100.00;102320.28;5056922;28;20045;-82
2023/01/04 07:39:15;;;;;;;86.68;71.63;;;;;;;3.84;100.00;102332.81;5044399;28;20057;-82
2023/01/04 07:41:42;;;;;;;90.53;72.75;;;;;;;3.80;100.00;102329.59;5041644;28;20468;-82
2023/01/04 07:44:10;;;;;;;85.38;70.00;;;;;;;3.84;100.00;102322.28;5050519;28;20041;-83
2023/01/04 07:46:39;;;;;;;75.18;66.80;;;;;;;4.19;100.00;102329.16;5055805;28;20118;-81
2023/01/04 07:49:06;;;;;;;85.53;71.07;;;;;;;4.07;100.00;102329.16;5058821;28;20118;-78
2023/01/04 07:51:33;;;;;;;89.28;74.10;;;;;;;3.97;100.00;102319.53;5062312;28;20067;-80
2023/01/04 07:54:00;;;;;;;84.18;69.85;;;;;;;4.13;100.00;102315.53;5048089;28;20201;-83
2023/01/04 07:56:27;;;;;;;97.70;76.07;;;;;;;4.03;100.00;102322.50;5058589;28;20452;-81
2023/01/04 07:58:56;;;;;;;105.72;79.70;;;;;;;4.08;100.00;102332.63;5052987;28;20048;-82
2023/01/04 08:01:24;;;;;;;93.75;79.35;;;;;;;4.06;100.00;102330.13;5059576;28;20059;-79
2023/01/04 08:03:53;;;;;;;104.28;82.25;;;;;;;4.34;100.00;102336.59;5064874;28;20064;-79
2023/01/04 08:06:21;;;;;;;100.65;79.55;;;;;;;4.40;100.00;102339.72;5064239;28;20394;-84
2023/01/04 08:08:48;;;;;;;107.03;77.22;;;;;;;4.34;100.00;102351.56;5061014;28;20041;-79
2023/01/04 08:11:17;;;;;;;105.43;78.75;;;;;;;4.26;100.00;102340.81;5061997;28;20052;-83
2023/01/04 08:13:44;;;;;;;103.18;78.00;;;;;;;4.39;100.00;102340.66;5052509;28;20428;-82
2023/01/04 08:16:22;;;;;;;107.30;80.13;;;;;;;4.53;100.00;102348.25;5047773;28;20106;-82
2023/01/04 08:18:54;;;;;;;135.25;86.65;;;;;;;4.55;100.00;102343.72;5050493;28;20432;-81
2023/01/04 08:21:23;;;;;;;127.82;85.63;;;;;;;4.74;100.00;102341.22;5051995;28;20078;-79
2023/01/04 08:23:57;;;;;;;131.30;91.28;;;;;;;4.85;100.00;102344.75;5044341;28;20057;-82
2023/01/04 08:26:24;;;;;;;123.10;88.32;;;;;;;4.75;100.00;102356.06;5050949;28;20119;-79
2023/01/04 08:28:51;;;;;;;93.68;75.80;;;;;;;4.68;100.00;102356.69;5048338;28;20467;-79
2023/01/04 08:31:21;;;;;;;102.53;76.68;;;;;;;4.65;100.00;102355.13;5050710;28;20052;-82
2023/01/04 08:33:48;;;;;;;97.10;73.95;;;;;;;4.72;100.00;102358.09;5040117;28;20095;-82
2023/01/04 08:36:21;;;;;;;114.28;82.97;;;;;;;4.93;100.00;102356.31;5050985;28;20056;-79
2023/01/04 08:38:49;;;;;;;108.07;79.68;;;;;;;4.91;100.00;102350.34;5049549;28;20116;-79
2023/01/04 08:41:16;;;;;;;110.22;78.70;;;;;;;5.14;100.00;102358.09;5046507;28;20048;-79
2023/01/04 08:43:43;;;;;;;116.78;81.90;;;;;;;5.24;100.00;102356.34;5047706;28;20037;-80
2023/01/04 08:46:12;;;;;;;101.68;79.50;;;;;;;5.10;100.00;102349.63;5048498;28;20362;-79
2023/01/04 08:48:39;;;;;;;87.80;73.85;;;;;;;5.25;100.00;102353.56;5046634;28;20052;-80
2023/01/04 08:51:08;;;;;;;103.88;77.85;;;;;;;5.13;100.00;102357.25;5055466;28;20061;-79
2023/01/04 08:53:37;;;;;;;96.57;75.93;;;;;;;5.20;100.00;102360.19;5066951;28;20045;-82
2023/01/04 08:56:05;;;;;;;123.03;83.47;;;;;;;5.16;100.00;102364.06;5048260;28;20141;-80
2023/01/04 08:58:33;;;;;;;138.50;95.95;;;;;;;5.14;100.00;102364.19;5043110;28;20048;-84
2023/01/04 09:01:01;;;;;;;120.07;88.85;;;;;;;5.28;100.00;102365.66;5048434;28;20051;-83
2023/01/04 09:03:28;;;;;;;117.75;85.70;;;;;;;5.38;100.00;102368.34;5052274;28;20128;-80
2023/01/04 09:06:01;;;;;;;103.88;81.07;;;;;;;5.31;100.00;102348.75;5047507;28;20377;-83
2023/01/04 09:08:28;;;;;;;94.25;77.03;;;;;;;5.53;100.00;102355.63;5060572;28;20473;-83
2023/01/04 09:10:56;;;;;;;92.80;72.65;;;;;;;5.58;100.00;102364.00;5057137;28;20114;-80
2023/01/04 09:13:23;;;;;;;84.78;69.35;;;;;;;5.71;100.00;102357.50;5055168;28;20466;-83
2023/01/04 09:15:49;;;;;;;95.15;76.40;;;;;;;5.78;100.00;102356.97;5061261;28;20110;-79
2023/01/04 09:18:16;;;;;;;95.78;76.93;;;;;;;5.67;100.00;102340.28;5060620;28;20045;-82
2023/01/04 09:20:43;;;;;;;100.90;79.60;;;;;;;5.66;100.00;102346.53;5056873;28;20049;-80
2023/01/04 09:23:10;;;;;;;112.13;83.93;;;;;;;5.71;100.00;102344.31;5064397;28;20052;-80
2023/01/04 09:25:38;;;;;;;135.77;99.53;;;;;;;5.71;100.00;102330.31;5051352;28;20107;-79
2023/01/04 09:28:08;;;;;;;159.82;108.93;;;;;;;5.72;100.00;102338.09;5044548;28;20048;-81
2023/01/04 09:30:35;;;;;;;165.05;106.88;;;;;;;5.55;100.00;102330.81;5046854;28;20110;-83
2023/01/04 09:33:02;;;;;;;135.40;93.75;;;;;;;5.56;100.00;102340.38;5059861;28;20048;-81
2023/01/04 09:35:28;;;;;;;91.90;72.50;;;;;;;5.45;100.00;102345.78;5050865;28;20480;-81
2023/01/04 09:37:55;;;;;;;90.68;71.28;;;;;;;5.46;100.00;102336.91;5053392;28;20118;-83
2023/01/04 09:40:27;;;;;;;77.55;64.80;;;;;;;5.62;100.00;102339.84;5048779;28;20044;-83
2023/01/04 09:42:55;;;;;;;74.90;65.75;;;;;;;5.59;100.00;102340.13;5041683;28;20048;-80
2023/01/04 09:45:26;;;;;;;78.13;66.40;;;;;;;5.61;100.00;102334.72;5045500;28;20063;-81
2023/01/04 09:47:58;;;;;;;72.60;62.35;;;;;;;5.53;100.00;102342.47;5063635;28;20075;-80
2023/01/04 09:50:29;;;;;;;77.97;65.50;;;;;;;5.62;100.00;102331.13;5059940;28;20102;-83
2023/01/04 09:53:03;;;;;;;76.18;64.38;;;;;;;5.66;100.00;102330.72;5054099;28;20123;-83
2023/01/04 09:55:34;;;;;;;66.75;59.45;;;;;;;5.56;100.00;102332.47;5054674;28;20375;-82
2023/01/04 09:58:03;;;;;;;73.55;62.70;;;;;;;5.59;100.00;102328.75;5035173;28;20455;-80
2023/01/04 10:00:37;;;;;;;66.57;59.60;;;;;;;5.61;100.00;102327.66;5063089;28;20061;-83
2023/01/04 10:03:12;;;;;;;68.90;59.13;;;;;;;5.59;100.00;102339.28;5053388;28;20118;-83
2023/01/04 10:05:40;;;;;;;68.00;57.10;;;;;;;5.73;100.00;102336.28;5053816;28;20099;-82
2023/01/04 10:08:15;;;;;;;66.28;57.72;;;;;;;5.80;100.00;102332.13;5055246;28;20123;-80
2023/01/04 10:10:49;;;;;;;60.88;54.42;;;;;;;5.87;100.00;102330.66;5055709;28;20128;-79
2023/01/04 10:13:30;;;;;;;61.00;53.90;;;;;;;6.01;100.00;102323.34;5049002;28;20128;-84
2023/01/04 10:16:11;;;;;;;78.00;64.85;;;;;;;6.00;100.00;102332.22;5056255;28;20113;-82
2023/01/04 10:18:49;;;;;;;96.53;76.30;;;;;;;6.09;100.00;102331.41;5065191;28;20074;-80
2023/01/04 10:21:37;;;;;;;71.28;61.38;;;;;;;6.10;100.00;102335.69;5061322;28;20057;-80
2023/01/04 10:24:31;;;;;;;110.22;78.43;;;;;;;6.10;100.00;102328.63;5053046;28;20049;-81
2023/01/04 10:27:03;;;;;;;112.47;80.05;;;;;;;6.16;100.00;102333.34;5044546;28;20049;-83
2023/01/04 10:29:44;;;;;;;81.13;67.30;;;;;;;6.19;100.00;102321.69;5052120;28;20049;-82
2023/01/04 10:32:19;;;;;;;107.30;74.00;;;;;;;6.33;100.00;102323.09;5058317;28;20041;-83
2023/01/04 10:34:47;;;;;;;80.22;65.80;;;;;;;6.26;100.00;102322.78;5058858;28;20045;-80
2023/01/04 10:37:19;;;;;;;98.28;78.82;;;;;;;6.30;100.00;102328.66;5052912;28;20136;-82
2023/01/04 10:39:47;;;;;;;79.27;69.37;;;;;;;6.35;100.00;102334.31;5064505;28;20110;-80
2023/01/04 10:42:18;;;;;;;64.97;58.13;;;;;;;6.31;100.00;102332.94;5050790;28;20049;-83
2023/01/04 10:44:55;;;;;;;65.23;58.27;;;;;;;6.24;100.00;102324.75;5055570;28;20068;-83
2023/01/04 10:47:30;;;;;;;67.00;59.72;;;;;;;6.24;100.00;102323.94;5060313;28;20051;-81
2023/01/04 10:50:00;;;;;;;78.18;64.68;;;;;;;6.30;100.00;102324.19;5052392;28;20110;-83
2023/01/04 10:52:31;;;;;;;69.28;60.53;;;;;;;6.49;100.00;102318.06;5057812;28;20045;-83
2023/01/04 10:55:04;;;;;;;72.93;63.87;;;;;;;6.45;100.00;102326.44;5057310;28;20048;-81
2023/01/04 10:57:40;;;;;;;72.30;64.35;;;;;;;6.45;100.00;102321.97;5050901;28;20380;-83
2023/01/04 11:00:11;;;;;;;79.95;67.40;;;;;;;6.40;100.00;102326.84;5067238;28;20504;-80
2023/01/04 11:02:48;;;;;;;83.28;68.43;;;;;;;6.48;100.00;102336.72;5065826;28;20198;-80
2023/01/04 11:05:20;;;;;;;76.07;67.63;;;;;;;6.42;100.00;102341.56;5059055;28;20082;-80
2023/01/04 11:07:52;;;;;;;79.38;69.82;;;;;;;6.47;100.00;102337.66;5050583;28;20573;-83
2023/01/04 11:10:27;;;;;;;76.90;66.77;;;;;;;6.61;100.00;102346.00;5056278;28;20057;-83
2023/01/04 11:12:54;;;;;;;74.05;64.22;;;;;;;6.54;100.00;102344.91;5056418;28;20044;-80
2023/01/04 11:15:21;;;;;;;79.68;64.97;;;;;;;6.48;100.00;102342.81;5058783;28;20102;-83
2023/01/04 11:17:50;;;;;;;76.95;64.22;;;;;;;6.52;100.00;102341.56;5057284;28;20065;-82
2023/01/04 11:20:18;;;;;;;75.97;65.15;;;;;;;6.53;100.00;102345.03;5060340;28;20049;-80
2023/01/04 11:22:53;;;;;;;74.63;65.75;;;;;;;6.62;100.00;102341.53;5062659;28;20057;-80
2023/01/04 11:25:23;;;;;;;75.80;67.60;;;;;;;6.59;100.00;102349.75;5045067;28;20041;-80
2023/01/04 11:27:57;;;;;;;73.55;65.53;;;;;;;6.64;100.00;102350.16;5061414;28;20052;-84
2023/01/04 11:30:27;;;;;;;75.55;67.22;;;;;;;6.53;100.00;102345.84;5051737;28;20110;-81
2023/01/04 11:33:02;;;;;;;81.43;65.95;;;;;;;6.49;100.00;102341.00;5060997;28;20049;-83
2023/01/04 11:35:43;;;;;;;79.22;65.25;;;;;;;6.51;100.00;102342.53;5057005;28;20470;-83
2023/01/04 11:38:13;;;;;;;79.70;69.57;;;;;;;6.35;100.00;102344.88;5062702;28;20057;-80
2023/01/04 11:40:40;;;;;;;79.47;66.97;;;;;;;6.41;100.00;102349.59;5061243;28;20474;-83
2023/01/04 11:43:18;;;;;;;79.15;67.65;;;;;;;6.52;100.00;102344.19;5072623;28;20102;-83
2023/01/04 11:45:56;;;;;;;84.65;73.03;;;;;;;6.37;100.00;102333.22;5061299;28;20556;-80
2023/01/04 11:48:37;;;;;;;95.00;76.05;;;;;;;6.35;100.00;102339.59;5061055;28;20071;-83
2023/01/04 11:51:05;;;;;;;96.28;79.07;;;;;;;6.34;100.00;102330.84;5064437;28;20053;-83
2023/01/04 11:53:33;;;;;;;99.85;84.88;;;;;;;6.34;100.00;102341.41;5065625;28;20045;-83
2023/01/04 11:56:15;;;;;;;128.18;100.32;;;;;;;6.27;100.00;102347.41;5065122;28;20044;-81
2023/01/04 11:58:43;;;;;;;116.72;87.50;;;;;;;6.24;100.00;102350.31;5060381;28;20122;-83
2023/01/04 12:01:21;;;;;;;121.38;92.50;;;;;;;6.25;100.00;102341.41;5067497;28;20083;-83
2023/01/04 12:03:49;;;;;;;121.18;90.35;;;;;;;6.29;100.00;102338.34;5061850;28;20407;-83
2023/01/04 12:06:19;;;;;;;110.78;94.32;;;;;;;6.18;100.00;102322.66;5064636;28;20044;-83